createdAt,value
2019-04-26T00:01:56.498Z,61.50
2019-04-26T00:04:25.306Z,61.40
2019-04-26T00:06:54.306Z,61.40
2019-04-26T00:09:27.635Z,61.70
2019-04-26T00:12:12.852Z,61.80
2019-04-26T00:14:45.840Z,62.00
2019-04-26T00:17:16.123Z,62.30
2019-04-26T00:19:46.671Z,61.90
2019-04-26T00:22:15.362Z,61.80
2019-04-26T00:24:43.807Z,62.50
2019-04-26T00:27:12.739Z,61.50
2019-04-26T00:29:41.263Z,61.80
2019-04-26T00:32:10.679Z,61.60
2019-04-26T00:34:40.025Z,61.60
2019-04-26T00:37:09.978Z,61.60
2019-04-26T00:39:38.474Z,61.60
2019-04-26T00:42:08.489Z,61.80
2019-04-26T00:44:37.048Z,61.80
2019-04-26T00:47:05.491Z,61.80
2019-04-26T00:49:43.607Z,61.70
2019-04-26T00:52:06.495Z,61.90
2019-04-26T00:54:37.391Z,62.00
2019-04-26T00:57:05.916Z,61.90
2019-04-26T00:59:34.393Z,61.70
2019-04-26T01:02:06.186Z,61.50
2019-04-26T01:04:34.787Z,61.60
2019-04-26T01:07:03.666Z,61.40
2019-04-26T01:09:32.166Z,61.70
2019-04-26T01:12:00.709Z,61.70
2019-04-26T01:14:32.464Z,61.40
2019-04-26T01:17:04.615Z,61.50
2019-04-26T01:19:33.124Z,61.40
2019-04-26T01:22:05.056Z,61.50
2019-04-26T01:24:34.930Z,61.60
2019-04-26T01:27:04.642Z,61.80
2019-04-26T01:29:33.325Z,61.80
2019-04-26T01:32:05.090Z,62.10
2019-04-26T01:34:33.633Z,62.40
2019-04-26T01:37:02.472Z,61.70
2019-04-26T01:39:32.033Z,61.70
2019-04-26T01:42:02.281Z,61.70
2019-04-26T01:44:34.401Z,61.70
2019-04-26T01:47:03.021Z,61.70
2019-04-26T01:49:32.493Z,61.70
2019-04-26T01:52:09.705Z,61.70
2019-04-26T01:54:42.235Z,61.90
2019-04-26T01:57:11.227Z,62.00
2019-04-26T01:59:42.794Z,62.20
2019-04-26T02:02:12.886Z,62.10
2019-04-26T02:04:53.320Z,62.20
2019-04-26T02:07:30.378Z,62.50
2019-04-26T02:09:58.958Z,62.30
2019-04-26T02:12:27.515Z,62.60
2019-04-26T02:14:55.974Z,62.60
2019-04-26T02:17:25.354Z,62.60
2019-04-26T02:19:53.922Z,62.60
2019-04-26T02:22:34.095Z,62.80
2019-04-26T02:25:02.724Z,63.60
2019-04-26T02:27:32.411Z,62.80
2019-04-26T02:30:01.109Z,62.80
2019-04-26T02:32:31.582Z,62.90
2019-04-26T02:35:00.250Z,63.10
2019-04-26T02:37:30.150Z,63.20
2019-04-26T02:39:58.894Z,63.10
2019-04-26T02:42:34.966Z,63.20
2019-04-26T02:45:26.939Z,63.20
2019-04-26T02:47:57.653Z,63.30
2019-04-26T02:50:32.771Z,64.10
2019-04-26T02:53:36.892Z,64.70
2019-04-26T02:56:17.976Z,65.10
2019-04-26T02:59:01.777Z,65.20
2019-04-26T03:01:32.353Z,65.80
2019-04-26T03:04:00.404Z,66.00
2019-04-26T03:06:30.562Z,66.20
2019-04-26T03:08:59.549Z,66.30
2019-04-26T03:11:32.008Z,66.40
2019-04-26T03:14:09.532Z,66.30
2019-04-26T03:16:44.576Z,66.10
2019-04-26T03:19:31.489Z,66.30
2019-04-26T03:22:09.142Z,66.40
2019-04-26T03:25:16.527Z,66.70
2019-04-26T03:28:06.171Z,66.50
2019-04-26T03:30:51.969Z,66.00
2019-04-26T03:33:42.023Z,65.90
2019-04-26T03:36:42.123Z,65.70
2019-04-26T03:39:19.890Z,65.90
2019-04-26T03:42:02.147Z,65.80
2019-04-26T03:44:38.372Z,66.00
2019-04-26T03:47:08.538Z,65.80
2019-04-26T03:49:56.618Z,65.60
2019-04-26T03:52:38.022Z,65.10
2019-04-26T03:55:25.917Z,64.90
2019-04-26T03:58:01.869Z,65.00
2019-04-26T04:00:32.140Z,64.80
2019-04-26T04:03:17.885Z,65.00
2019-04-26T04:05:49.119Z,65.30
2019-04-26T04:08:23.618Z,65.40
2019-04-26T04:10:58.381Z,65.40
2019-04-26T04:13:43.216Z,65.40
2019-04-26T04:16:16.549Z,65.50
2019-04-26T04:18:48.368Z,65.70
2019-04-26T04:21:24.311Z,65.80
2019-04-26T04:24:03.893Z,66.00
2019-04-26T04:26:39.606Z,66.20
2019-04-26T04:29:46.370Z,66.40
2019-04-26T04:32:42.475Z,66.60
2019-04-26T04:35:12.679Z,67.10
2019-04-26T04:38:08.794Z,67.30
2019-04-26T04:40:58.724Z,67.60
2019-04-26T04:43:32.108Z,67.80
2019-04-26T04:46:08.424Z,67.20
2019-04-26T04:49:09.179Z,67.40
2019-04-26T04:51:58.935Z,67.20
2019-04-26T04:55:06.793Z,66.90
2019-04-26T04:57:58.411Z,66.70
2019-04-26T05:00:47.162Z,66.50
2019-04-26T05:03:26.383Z,66.40
2019-04-26T05:06:23.688Z,66.70
2019-04-26T05:09:13.195Z,67.20
2019-04-26T05:11:50.402Z,67.30
2019-04-26T05:14:38.952Z,67.50
2019-04-26T05:17:19.762Z,67.90
2019-04-26T05:20:00.371Z,67.80
2019-04-26T05:23:05.598Z,67.30
2019-04-26T05:25:58.774Z,67.40
2019-04-26T05:28:37.784Z,67.20
2019-04-26T05:31:27.769Z,67.40
2019-04-26T05:34:23.720Z,67.20
2019-04-26T05:37:01.260Z,67.10
2019-04-26T05:39:44.845Z,66.80
2019-04-26T05:42:23.943Z,66.40
2019-04-26T05:45:12.380Z,66.00
2019-04-26T05:48:08.232Z,65.60
2019-04-26T05:51:07.526Z,65.10
2019-04-26T05:54:18.940Z,64.50
2019-04-26T05:57:09.262Z,65.00
2019-04-26T05:59:56.745Z,65.80
2019-04-26T06:03:01.313Z,66.10
2019-04-26T06:05:50.891Z,66.60
2019-04-26T06:08:36.272Z,67.20
2019-04-26T06:11:07.926Z,67.30
2019-04-26T06:13:52.182Z,67.50
2019-04-26T06:16:40.408Z,67.40
2019-04-26T06:19:16.615Z,66.90
2019-04-26T06:22:06.458Z,66.20
2019-04-26T06:24:52.597Z,66.10
2019-04-26T06:27:31.259Z,65.00
2019-04-26T06:30:09.032Z,65.20
2019-04-26T06:32:55.934Z,64.90
2019-04-26T06:35:20.537Z,64.70
2019-04-26T06:38:11.723Z,64.20
2019-04-26T06:40:46.119Z,63.60
2019-04-26T06:43:22.185Z,64.00
2019-04-26T06:46:28.998Z,64.30
2019-04-26T06:49:23.240Z,65.00
2019-04-26T06:52:08.558Z,65.40
2019-04-26T06:54:57.773Z,65.20
2019-04-26T06:58:03.289Z,65.50
2019-04-26T07:00:48.327Z,65.70
2019-04-26T07:03:22.998Z,65.30
2019-04-26T07:05:58.972Z,65.70
2019-04-26T07:08:43.108Z,65.30
2019-04-26T07:11:43.366Z,65.10
2019-04-26T07:14:48.430Z,64.80
2019-04-26T07:17:20.237Z,65.60
2019-04-26T07:20:19.037Z,66.10
2019-04-26T07:22:58.093Z,66.10
2019-04-26T07:25:48.060Z,66.40
2019-04-26T07:28:22.601Z,66.00
2019-04-26T07:30:57.326Z,65.50
2019-04-26T07:33:39.103Z,65.40
2019-04-26T07:36:27.911Z,65.50
2019-04-26T07:39:22.537Z,65.20
2019-04-26T07:42:11.542Z,64.80
2019-04-26T07:45:05.481Z,64.40
2019-04-26T07:47:55.482Z,64.30
2019-04-26T07:50:50.042Z,64.10
2019-04-26T07:53:33.522Z,64.00
2019-04-26T07:56:20.678Z,63.50
2019-04-26T07:59:26.148Z,63.90
2019-04-26T08:02:15.700Z,64.20
2019-04-26T08:04:47.845Z,63.70
2019-04-26T08:07:26.529Z,62.90
2019-04-26T08:10:14.555Z,62.50
2019-04-26T08:12:43.655Z,63.30
2019-04-26T08:15:27.451Z,63.30
2019-04-26T08:18:06.871Z,62.80
2019-04-26T08:20:43.211Z,61.10
2019-04-26T08:23:28.169Z,60.80
2019-04-26T08:25:45.158Z,60.40
2019-04-26T08:28:14.866Z,60.40
2019-04-26T08:30:46.271Z,60.40
2019-04-26T08:33:16.155Z,60.70
2019-04-26T08:35:48.955Z,60.40
2019-04-26T08:38:20.844Z,60.50
2019-04-26T08:40:45.389Z,59.80
2019-04-26T08:43:31.944Z,59.40
2019-04-26T08:46:11.293Z,59.90
2019-04-26T08:48:42.102Z,57.90
2019-04-26T08:51:21.974Z,57.70
2019-04-26T08:53:50.773Z,57.10
2019-04-26T08:56:38.393Z,57.20
2019-04-26T08:59:26.860Z,57.00
2019-04-26T09:02:13.673Z,57.00
2019-04-26T09:04:44.551Z,56.40
2019-04-26T09:07:17.770Z,55.90
2019-04-26T09:09:56.724Z,55.20
2019-04-26T09:12:23.157Z,54.30
2019-04-26T09:14:52.078Z,55.40
2019-04-26T09:17:20.823Z,55.10
2019-04-26T09:19:52.366Z,54.70
2019-04-26T09:22:31.620Z,55.20
2019-04-26T09:25:02.123Z,54.60
2019-04-26T09:27:45.104Z,54.50
2019-04-26T09:30:34.173Z,54.40
2019-04-26T09:33:03.043Z,53.10
2019-04-26T09:35:31.892Z,53.00
2019-04-26T09:38:00.301Z,53.30
2019-04-26T09:40:29.156Z,51.80
2019-04-26T09:43:10.431Z,52.10
2019-04-26T09:45:54.986Z,51.70
2019-04-26T09:48:25.179Z,51.90
2019-04-26T09:50:55.512Z,51.50
2019-04-26T09:53:23.981Z,52.30
2019-04-26T09:55:52.678Z,51.90
2019-04-26T09:58:22.991Z,51.70
2019-04-26T10:00:51.425Z,52.20
2019-04-26T10:03:20.057Z,53.60
2019-04-26T10:05:52.147Z,51.40
2019-04-26T10:08:19.125Z,48.30
2019-04-26T10:10:47.613Z,48.00
2019-04-26T10:13:32.948Z,48.30
2019-04-26T10:16:04.305Z,47.10
2019-04-26T10:18:32.944Z,47.30
2019-04-26T10:21:01.426Z,46.60
2019-04-26T10:23:29.927Z,46.50
2019-04-26T10:25:58.349Z,45.70
2019-04-26T10:28:26.842Z,44.90
2019-04-26T10:30:55.460Z,44.10
2019-04-26T10:33:23.982Z,41.70
2019-04-26T10:35:56.537Z,44.60
2019-04-26T10:38:23.709Z,44.90
2019-04-26T10:40:52.938Z,37.60
2019-04-26T10:43:21.568Z,38.10
2019-04-26T10:45:53.953Z,41.90
2019-04-26T10:48:22.964Z,36.40
2019-04-26T10:50:50.546Z,36.40
2019-04-26T10:53:30.105Z,38.70
2019-04-26T10:56:13.914Z,37.00
2019-04-26T10:58:46.771Z,38.70
2019-04-26T11:01:16.833Z,36.10
2019-04-26T11:03:45.518Z,34.30
2019-04-26T11:06:14.123Z,38.20
2019-04-26T11:08:42.710Z,35.00
2019-04-26T11:11:11.217Z,33.90
2019-04-26T11:13:39.660Z,34.90
2019-04-26T11:16:08.958Z,32.80
2019-04-26T11:18:37.720Z,33.00
2019-04-26T11:21:06.222Z,34.20
2019-04-26T11:23:34.840Z,33.90
2019-04-26T11:26:03.491Z,35.10
2019-04-26T11:28:32.007Z,35.10
2019-04-26T11:31:00.460Z,32.60
2019-04-26T11:33:28.964Z,31.00
2019-04-26T11:35:57.532Z,32.30
2019-04-26T11:38:31.094Z,32.80
2019-04-26T11:41:05.964Z,33.30
2019-04-26T11:43:26.919Z,34.20
2019-04-26T11:46:04.154Z,37.30
2019-04-26T11:48:28.906Z,40.50
2019-04-26T11:50:55.749Z,40.60
2019-04-26T11:53:24.263Z,35.10
2019-04-26T11:55:52.702Z,32.90
2019-04-26T11:58:22.547Z,32.70
2019-04-26T12:00:53.057Z,31.90
2019-04-26T12:03:24.910Z,32.00
2019-04-26T12:05:54.585Z,31.50
2019-04-26T12:08:41.215Z,30.70
2019-04-26T12:11:18.308Z,33.80
2019-04-26T12:13:40.063Z,36.20
2019-04-26T12:16:09.937Z,30.00
2019-04-26T12:18:40.293Z,31.10
2019-04-26T12:21:08.785Z,32.10
2019-04-26T12:23:37.285Z,28.80
2019-04-26T12:26:05.869Z,28.10
2019-04-26T12:28:36.298Z,28.60
2019-04-26T12:31:04.621Z,27.20
2019-04-26T12:33:33.148Z,27.40
2019-04-26T12:36:01.754Z,28.10
2019-04-26T12:38:30.471Z,28.10
2019-04-26T12:40:59.047Z,28.30
2019-04-26T12:43:27.613Z,28.60
2019-04-26T12:46:14.395Z,30.40
2019-04-26T12:48:45.953Z,27.70
2019-04-26T12:51:13.748Z,27.20
2019-04-26T12:53:42.212Z,27.20
2019-04-26T12:56:10.642Z,27.00
2019-04-26T12:58:39.189Z,25.70
2019-04-26T13:01:12.205Z,26.30
2019-04-26T13:03:39.564Z,26.40
2019-04-26T13:06:08.210Z,26.60
2019-04-26T13:08:37.962Z,27.30
2019-04-26T13:11:23.194Z,27.10
2019-04-26T13:13:56.274Z,27.50
2019-04-26T13:16:27.831Z,28.00
2019-04-26T13:18:56.425Z,28.40
2019-04-26T13:21:25.283Z,29.00
2019-04-26T13:23:54.415Z,29.50
2019-04-26T13:26:30.296Z,29.90
2019-04-26T13:28:59.559Z,29.90
2019-04-26T13:31:31.740Z,30.00
2019-04-26T13:34:02.868Z,30.50
2019-04-26T13:36:30.648Z,30.90
2019-04-26T13:38:59.720Z,31.20
2019-04-26T13:41:29.451Z,31.50
2019-04-26T13:44:01.245Z,32.10
2019-04-26T13:46:36.230Z,32.40
2019-04-26T13:49:14.228Z,32.70
2019-04-26T13:51:43.549Z,32.10
2019-04-26T13:54:16.620Z,31.70
2019-04-26T13:56:44.661Z,31.50
2019-04-26T13:59:13.378Z,30.60
2019-04-26T14:01:41.882Z,31.40
2019-04-26T14:04:10.468Z,32.40
2019-04-26T14:06:40.820Z,33.10
2019-04-26T14:09:11.246Z,33.30
2019-04-26T14:11:39.874Z,33.30
2019-04-26T14:14:08.628Z,33.20
2019-04-26T14:16:37.649Z,33.50
2019-04-26T14:19:14.622Z,33.70
2019-04-26T14:21:39.759Z,33.90
2019-04-26T14:24:23.968Z,34.00
2019-04-26T14:26:56.758Z,34.50
2019-04-26T14:29:28.461Z,34.70
2019-04-26T14:31:55.904Z,34.50
2019-04-26T14:34:24.538Z,34.60
2019-04-26T14:37:05.556Z,35.40
2019-04-26T14:39:33.875Z,33.30
2019-04-26T14:41:57.118Z,30.90
2019-04-26T14:44:27.270Z,30.20
2019-04-26T14:46:56.855Z,29.20
2019-04-26T14:49:25.043Z,28.70
2019-04-26T14:51:56.373Z,28.10
2019-04-26T14:54:24.968Z,29.20
2019-04-26T14:56:53.539Z,28.50
2019-04-26T14:59:45.545Z,27.80
2019-04-26T15:02:16.011Z,28.30
2019-04-26T15:04:53.369Z,27.70
2019-04-26T15:07:24.280Z,27.70
2019-04-26T15:09:53.026Z,28.50
2019-04-26T15:12:22.379Z,28.30
2019-04-26T15:14:53.847Z,26.70
2019-04-26T15:17:24.875Z,26.50
2019-04-26T15:19:51.795Z,26.40
2019-04-26T15:22:20.626Z,24.70
2019-04-26T15:24:49.179Z,24.70
2019-04-26T15:27:17.956Z,24.90
2019-04-26T15:29:46.506Z,25.10
2019-04-26T15:32:15.103Z,24.40
2019-04-26T15:34:43.615Z,23.90
2019-04-26T15:37:12.890Z,24.10
2019-04-26T15:40:00.586Z,23.90
2019-04-26T15:42:39.575Z,24.70
2019-04-26T15:45:15.521Z,24.60
2019-04-26T15:47:45.772Z,24.50
2019-04-26T15:50:32.873Z,24.00
2019-04-26T15:53:02.556Z,24.70
2019-04-26T15:55:33.775Z,25.40
2019-04-26T15:58:02.682Z,25.90
2019-04-26T16:00:32.699Z,26.20
2019-04-26T16:03:03.802Z,26.50
2019-04-26T16:05:33.646Z,26.90
2019-04-26T16:08:04.530Z,27.00
2019-04-26T16:10:37.941Z,27.60
2019-04-26T16:13:16.171Z,28.00
2019-04-26T16:15:34.259Z,28.30
2019-04-26T16:18:04.292Z,28.40
2019-04-26T16:20:38.038Z,28.60
2019-04-26T16:23:05.950Z,28.60
2019-04-26T16:25:38.328Z,28.90
2019-04-26T16:28:23.467Z,29.40
2019-04-26T16:31:06.658Z,29.60
2019-04-26T16:33:37.546Z,30.00
2019-04-26T16:36:06.381Z,30.20
2019-04-26T16:38:35.511Z,30.00
2019-04-26T16:41:05.772Z,30.10
2019-04-26T16:43:40.321Z,30.20
2019-04-26T16:46:05.438Z,30.10
2019-04-26T16:48:34.155Z,29.80
2019-04-26T16:51:08.277Z,29.90
2019-04-26T16:53:46.311Z,30.00
2019-04-26T16:56:03.763Z,30.10
2019-04-26T16:58:38.163Z,30.40
2019-04-26T17:01:04.534Z,30.40
2019-04-26T17:03:38.175Z,30.70
2019-04-26T17:06:06.716Z,31.20
2019-04-26T17:08:33.677Z,31.90
2019-04-26T17:11:02.129Z,32.40
2019-04-26T17:13:32.804Z,32.60
2019-04-26T17:16:02.253Z,33.30
2019-04-26T17:18:32.382Z,33.20
2019-04-26T17:21:02.552Z,33.20
2019-04-26T17:23:41.814Z,32.80
2019-04-26T17:26:22.413Z,32.50
2019-04-26T17:28:52.178Z,32.40
2019-04-26T17:31:22.804Z,32.00
2019-04-26T17:33:51.711Z,32.00
2019-04-26T17:36:20.836Z,32.00
2019-04-26T17:38:50.567Z,32.00
2019-04-26T17:41:19.494Z,32.00
2019-04-26T17:43:52.064Z,32.60
2019-04-26T17:46:20.013Z,32.80
2019-04-26T17:48:51.268Z,32.80
2019-04-26T17:51:22.992Z,33.20
2019-04-26T17:54:12.885Z,33.20
2019-04-26T17:56:25.772Z,33.30
2019-04-26T17:58:54.589Z,33.30
2019-04-26T18:01:41.972Z,33.80
2019-04-26T18:03:57.189Z,34.40
2019-04-26T18:06:29.763Z,34.50
2019-04-26T18:08:57.878Z,34.60
2019-04-26T18:11:26.542Z,35.30
2019-04-26T18:13:58.401Z,36.10
2019-04-26T18:16:29.517Z,36.60
2019-04-26T18:19:02.366Z,36.10
2019-04-26T18:21:43.782Z,36.70
2019-04-26T18:24:13.303Z,36.70
2019-04-26T18:26:42.157Z,37.00
2019-04-26T18:29:10.977Z,37.40
2019-04-26T18:31:40.094Z,37.10
2019-04-26T18:34:08.912Z,37.40
2019-04-26T18:36:37.828Z,37.40
2019-04-26T18:39:07.809Z,37.70
2019-04-26T18:41:40.062Z,37.80
2019-04-26T18:44:08.637Z,38.00
2019-04-26T18:46:47.171Z,37.70
2019-04-26T18:49:19.870Z,38.30
2019-04-26T18:51:48.297Z,38.40
2019-04-26T18:54:20.818Z,38.60
2019-04-26T18:56:55.149Z,38.80
2019-04-26T18:59:23.830Z,39.30
2019-04-26T19:01:53.540Z,39.40
2019-04-26T19:04:23.608Z,39.40
2019-04-26T19:06:53.302Z,39.30
2019-04-26T19:09:23.602Z,39.30
2019-04-26T19:11:53.568Z,39.50
2019-04-26T19:14:24.354Z,39.60
2019-04-26T19:17:02.105Z,39.30
2019-04-26T19:19:35.546Z,39.10
2019-04-26T19:22:09.393Z,39.20
2019-04-26T19:24:38.571Z,39.20
2019-04-26T19:27:06.629Z,39.40
2019-04-26T19:29:36.293Z,39.60
2019-04-26T19:32:05.480Z,39.70
2019-04-26T19:34:35.374Z,39.70
2019-04-26T19:37:04.209Z,39.50
2019-04-26T19:39:35.481Z,39.50
2019-04-26T19:42:06.006Z,39.50
2019-04-26T19:44:35.740Z,39.60
2019-04-26T19:47:07.863Z,40.30
2019-04-26T19:49:54.040Z,40.40
2019-04-26T19:52:39.354Z,40.60
2019-04-26T19:55:12.256Z,40.80
2019-04-26T19:57:42.694Z,40.80
2019-04-26T20:00:13.064Z,41.80
2019-04-26T20:02:42.093Z,42.10
2019-04-26T20:05:11.898Z,42.40
2019-04-26T20:07:41.630Z,41.80
2019-04-26T20:10:10.302Z,41.70
2019-04-26T20:12:38.898Z,42.30
2019-04-26T20:15:07.698Z,41.90
2019-04-26T20:17:36.712Z,41.90
2019-04-26T20:20:16.942Z,41.70
2019-04-26T20:22:36.757Z,41.90
2019-04-26T20:25:06.098Z,41.70
2019-04-26T20:27:34.949Z,42.40
2019-04-26T20:30:05.533Z,42.40
2019-04-26T20:32:36.029Z,42.80
2019-04-26T20:35:12.869Z,43.30
2019-04-26T20:37:41.589Z,43.40
2019-04-26T20:40:20.269Z,43.30
2019-04-26T20:42:42.206Z,43.70
2019-04-26T20:45:13.231Z,44.10
2019-04-26T20:47:41.627Z,43.70
2019-04-26T20:50:12.048Z,44.00
2019-04-26T20:52:41.461Z,44.00
2019-04-26T20:55:11.922Z,44.30
2019-04-26T20:57:42.707Z,44.30
2019-04-26T21:00:12.645Z,44.00
2019-04-26T21:02:41.612Z,44.00
2019-04-26T21:05:11.304Z,43.70
2019-04-26T21:07:41.839Z,43.50
2019-04-26T21:10:15.266Z,43.10
2019-04-26T21:12:41.772Z,43.30
2019-04-26T21:15:11.632Z,43.00
2019-04-26T21:17:41.543Z,42.80
2019-04-26T21:20:10.416Z,42.90
2019-04-26T21:22:39.086Z,42.90
2019-04-26T21:25:18.560Z,42.80
2019-04-26T21:27:55.721Z,42.90
2019-04-26T21:30:42.005Z,43.00
2019-04-26T21:33:13.001Z,42.80
2019-04-26T21:35:57.640Z,43.50
2019-04-26T21:38:41.011Z,43.60
2019-04-26T21:41:13.498Z,43.60
2019-04-26T21:43:50.071Z,43.80
2019-04-26T21:46:23.352Z,44.60
2019-04-26T21:48:53.425Z,44.80
2019-04-26T21:51:22.948Z,44.60
2019-04-26T21:53:53.013Z,44.50
2019-04-26T21:56:25.634Z,45.40
2019-04-26T21:58:54.269Z,45.90
2019-04-26T22:01:23.426Z,46.00
2019-04-26T22:03:57.044Z,46.00
2019-04-26T22:06:28.753Z,46.00
2019-04-26T22:09:13.716Z,46.10
2019-04-26T22:11:44.477Z,46.80
2019-04-26T22:14:19.688Z,47.00
2019-04-26T22:17:02.018Z,47.40
2019-04-26T22:19:32.515Z,47.10
2019-04-26T22:22:18.747Z,46.60
2019-04-26T22:24:48.868Z,47.00
2019-04-26T22:27:21.624Z,47.50
2019-04-26T22:29:51.698Z,47.90
2019-04-26T22:32:19.069Z,47.90
2019-04-26T22:34:48.095Z,47.60
2019-04-26T22:37:29.182Z,48.30
2019-04-26T22:39:50.210Z,48.10
2019-04-26T22:42:19.618Z,48.30
2019-04-26T22:44:55.943Z,48.50
2019-04-26T22:47:26.042Z,49.40
2019-04-26T22:49:54.570Z,49.50
2019-04-26T22:52:23.251Z,49.80
2019-04-26T22:54:53.718Z,49.70
2019-04-26T22:57:23.194Z,49.20
2019-04-26T22:59:53.552Z,50.40
2019-04-26T23:02:26.137Z,50.30
2019-04-26T23:04:56.089Z,50.60
2019-04-26T23:07:25.998Z,50.80
2019-04-26T23:09:55.366Z,50.90
2019-04-26T23:12:28.253Z,50.30
2019-04-26T23:15:17.268Z,51.00
2019-04-26T23:18:07.740Z,51.00
2019-04-26T23:20:37.802Z,51.70
2019-04-26T23:23:08.516Z,52.10
2019-04-26T23:25:37.025Z,52.10
2019-04-26T23:28:05.591Z,51.70
2019-04-26T23:30:34.086Z,51.80
2019-04-26T23:33:02.654Z,52.30
2019-04-26T23:35:31.261Z,52.80
2019-04-26T23:38:00.856Z,52.50
2019-04-26T23:40:30.162Z,53.10
2019-04-26T23:42:58.755Z,52.30
2019-04-26T23:45:27.335Z,52.60
2019-04-26T23:47:55.871Z,52.40
2019-04-26T23:50:25.513Z,53.10
2019-04-26T23:52:54.609Z,52.90
2019-04-26T23:55:23.632Z,52.60
2019-04-26T23:57:53.485Z,52.30
